Time;durP1;ratioP1;P1;durP2;ratioP2;P2;SDS_P1;SDS_P2;PMS_P1;PMS_P2;Temp;Humidity;BMP_temperature;BMP_pressure;BME280_temperature;BME280_humidity;BME280_pressure;Samples;Min_cycle;Max_cycle;Signal;HPM_P1;HPM_P2
2023/04/28 00:01:43;;;;;;;6.85;4.72;;;;;;;8.66;60.71;101249.25;5015299;28;20055;-77
2023/04/28 00:04:08;;;;;;;9.20;4.82;;;;;;;8.65;61.52;101255.31;5013469;28;20037;-77
2023/04/28 00:06:34;;;;;;;8.80;4.65;;;;;;;8.64;62.27;101257.06;5014649;28;20148;-77
2023/04/28 00:08:59;;;;;;;7.75;4.90;;;;;;;8.62;62.58;101253.63;5020646;28;20053;-77
2023/04/28 00:11:24;;;;;;;8.48;4.85;;;;;;;8.60;62.16;101250.19;5020457;28;20017;-77
2023/04/28 00:13:50;;;;;;;6.78;4.63;;;;;;;8.58;61.64;101246.75;5027011;28;20409;-76
2023/04/28 00:16:15;;;;;;;8.02;5.13;;;;;;;8.54;61.91;101229.50;5013444;28;20068;-77
2023/04/28 00:18:41;;;;;;;8.05;4.93;;;;;;;8.55;63.02;101230.38;5012004;28;20072;-77
2023/04/28 00:21:07;;;;;;;9.95;5.68;;;;;;;8.53;63.21;101227.81;5015142;28;20477;-77
2023/04/28 00:23:32;;;;;;;9.68;5.50;;;;;;;8.51;64.55;101226.97;5022199;28;20021;-77
2023/04/28 00:25:58;;;;;;;7.72;4.80;;;;;;;8.49;63.40;101223.53;5015186;28;20377;-77
2023/04/28 00:28:23;;;;;;;8.75;4.95;;;;;;;8.46;63.59;101232.13;5014547;28;20124;-77
2023/04/28 00:30:48;;;;;;;9.15;5.32;;;;;;;8.45;64.71;101235.63;5010363;28;20495;-77
2023/04/28 00:33:13;;;;;;;8.68;4.80;;;;;;;8.44;64.36;101233.03;5012433;28;20033;-77
2023/04/28 00:35:40;;;;;;;9.75;5.22;;;;;;;8.42;65.46;101230.47;5018685;28;20029;-77
2023/04/28 00:38:06;;;;;;;10.82;5.57;;;;;;;8.41;66.73;101228.75;5012092;28;20026;-77
2023/04/28 00:40:36;;;;;;;11.13;5.65;;;;;;;8.39;66.70;101219.25;5011704;28;20071;-77
2023/04/28 00:43:02;;;;;;;7.95;4.95;;;;;;;8.37;67.13;101210.66;5011601;28;20021;-77
2023/04/28 00:45:27;;;;;;;8.23;5.32;;;;;;;8.34;67.26;101204.63;5011042;28;20041;-77
2023/04/28 00:47:53;;;;;;;8.80;5.38;;;;;;;8.32;67.27;101201.19;5013651;28;20381;-76
2023/04/28 00:50:19;;;;;;;9.77;5.47;;;;;;;8.29;66.75;101202.94;5014319;28;20025;-76
2023/04/28 00:52:45;;;;;;;8.65;5.53;;;;;;;8.25;67.21;101196.09;5020393;28;20022;-76
2023/04/28 00:55:14;;;;;;;9.93;5.60;;;;;;;8.22;67.48;101191.78;5012408;28;20034;-76
2023/04/28 00:57:40;;;;;;;9.30;5.78;;;;;;;8.18;68.37;101187.53;5019400;28;20029;-77
2023/04/28 01:00:06;;;;;;;9.50;5.60;;;;;;;8.17;69.23;101188.41;5020625;28;20010;-76
2023/04/28 01:02:32;;;;;;;9.50;5.57;;;;;;;8.14;69.66;101188.44;5024884;28;20388;-76
2023/04/28 01:04:58;;;;;;;8.60;5.70;;;;;;;8.09;70.83;101188.47;5015806;28;20105;-76
2023/04/28 01:07:24;;;;;;;10.18;5.65;;;;;;;8.07;69.84;101181.56;5013315;28;20106;-76
2023/04/28 01:09:50;;;;;;;10.05;5.95;;;;;;;8.03;71.13;101191.97;5013278;28;20022;-76
2023/04/28 01:12:15;;;;;;;10.80;6.18;;;;;;;8.01;70.93;101190.28;5013924;28;20436;-76
2023/04/28 01:14:41;;;;;;;9.60;5.60;;;;;;;8.00;72.39;101181.66;5012376;28;20037;-76
2023/04/28 01:17:07;;;;;;;8.77;5.57;;;;;;;7.98;72.25;101175.63;5013801;28;20021;-76
2023/04/28 01:19:33;;;;;;;9.43;5.53;;;;;;;7.97;72.83;101171.31;5010729;28;20532;-76
2023/04/28 01:21:58;;;;;;;10.85;5.93;;;;;;;7.93;71.75;101164.44;5011558;28;20577;-76
2023/04/28 01:24:23;;;;;;;9.88;5.57;;;;;;;7.89;72.78;101163.63;5012433;28;20021;-76
2023/04/28 01:26:48;;;;;;;9.95;5.90;;;;;;;7.89;71.60;101158.44;5009449;28;20508;-76
2023/04/28 01:29:14;;;;;;;10.60;6.20;;;;;;;7.87;71.57;101143.75;5011535;28;20038;-76
2023/04/28 01:31:39;;;;;;;11.73;5.50;;;;;;;7.85;71.39;101140.34;5011955;28;20026;-77
2023/04/28 01:34:05;;;;;;;10.93;5.85;;;;;;;7.82;71.33;101132.59;5011129;28;20021;-76
2023/04/28 01:36:31;;;;;;;9.98;6.15;;;;;;;7.81;72.08;101128.28;5013790;28;20030;-76
2023/04/28 01:38:57;;;;;;;10.40;5.55;;;;;;;7.79;72.49;101127.44;5015049;28;20423;-76
2023/04/28 01:41:22;;;;;;;9.00;5.18;;;;;;;7.81;71.95;101123.13;5017799;28;20036;-76
2023/04/28 01:43:47;;;;;;;8.30;5.40;;;;;;;7.79;71.43;101124.84;5021037;28;20018;-76
2023/04/28 01:46:13;;;;;;;8.90;5.78;;;;;;;7.77;71.81;101134.38;5010844;28;20026;-76
2023/04/28 01:48:38;;;;;;;8.85;5.60;;;;;;;7.73;71.71;101129.22;5010848;28;20061;-76
2023/04/28 01:51:03;;;;;;;9.93;6.10;;;;;;;7.72;72.20;101122.31;5018273;28;20025;-77
2023/04/28 01:53:29;;;;;;;9.68;5.97;;;;;;;7.72;72.79;101126.66;5018123;28;20034;-76
2023/04/28 01:55:54;;;;;;;10.63;5.72;;;;;;;7.72;72.08;101118.88;5013678;28;20396;-76
2023/04/28 01:58:19;;;;;;;9.73;5.82;;;;;;;7.70;72.08;101121.47;5009833;28;20147;-76
2023/04/28 02:00:45;;;;;;;10.40;6.38;;;;;;;7.71;72.52;101115.41;5008637;28;20077;-77
2023/04/28 02:03:10;;;;;;;10.23;5.80;;;;;;;7.70;72.46;101100.75;5012269;28;20393;-76
2023/04/28 02:05:36;;;;;;;11.88;6.05;;;;;;;7.69;73.16;101117.16;5010901;28;20112;-76
2023/04/28 02:08:01;;;;;;;10.30;6.45;;;;;;;7.68;73.19;101101.66;5010401;28;20093;-76
2023/04/28 02:10:27;;;;;;;11.27;5.47;;;;;;;7.67;72.46;101111.16;5011656;28;20421;-76
2023/04/28 02:12:52;;;;;;;10.25;5.88;;;;;;;7.65;73.79;101112.91;5014173;28;20029;-76
2023/04/28 02:15:18;;;;;;;8.77;6.05;;;;;;;7.64;73.50;101116.38;5013948;28;20341;-76
2023/04/28 02:17:43;;;;;;;8.60;5.85;;;;;;;7.65;73.51;101117.22;5010186;28;20489;-76
2023/04/28 02:20:09;;;;;;;11.50;6.22;;;;;;;7.66;73.88;101119.81;5012676;28;20098;-76
2023/04/28 02:22:34;;;;;;;10.05;6.43;;;;;;;7.66;74.70;101109.44;5010455;28;20477;-76
2023/04/28 02:25:00;;;;;;;9.80;5.93;;;;;;;7.67;74.18;101103.41;5011769;28;20032;-76
2023/04/28 02:27:25;;;;;;;10.38;6.50;;;;;;;7.66;74.41;101103.38;5017013;28;20049;-76
2023/04/28 02:29:51;;;;;;;9.73;6.05;;;;;;;7.65;74.64;101099.09;5012489;28;20084;-76
2023/04/28 02:32:16;;;;;;;9.45;6.03;;;;;;;7.62;74.97;101094.81;5028456;28;20087;-76
2023/04/28 02:34:42;;;;;;;11.02;6.20;;;;;;;7.62;74.45;101087.03;5021623;28;20029;-76
2023/04/28 02:37:07;;;;;;;10.32;6.00;;;;;;;7.61;74.78;101082.72;5018481;28;20021;-76
2023/04/28 02:39:32;;;;;;;10.48;6.38;;;;;;;7.60;75.14;101068.06;5011869;28;20028;-76
2023/04/28 02:41:58;;;;;;;12.18;6.38;;;;;;;7.59;74.93;101062.03;5011821;28;20091;-76
2023/04/28 02:44:23;;;;;;;12.43;6.88;;;;;;;7.59;74.94;101054.28;5010738;28;20053;-76
2023/04/28 02:46:49;;;;;;;10.80;6.78;;;;;;;7.59;75.46;101048.22;5012767;28;20042;-76
2023/04/28 02:49:14;;;;;;;11.25;6.38;;;;;;;7.58;75.43;101043.91;5016826;28;20026;-76
2023/04/28 02:51:40;;;;;;;11.18;6.53;;;;;;;7.56;76.33;101054.28;5023799;28;20030;-76
2023/04/28 02:54:05;;;;;;;11.82;6.97;;;;;;;7.56;76.09;101045.66;5017338;28;20021;-76
2023/04/28 02:56:30;;;;;;;11.60;6.90;;;;;;;7.57;76.58;101031.84;5011821;28;20795;-76
2023/04/28 02:58:56;;;;;;;13.23;6.85;;;;;;;7.53;76.12;101024.97;5014365;28;20018;-76
2023/04/28 03:01:21;;;;;;;11.02;6.88;;;;;;;7.53;77.06;101010.31;5011935;28;20129;-76
2023/04/28 03:03:47;;;;;;;11.85;7.07;;;;;;;7.52;77.26;100999.94;5011001;28;20030;-76
2023/04/28 03:06:12;;;;;;;12.88;7.30;;;;;;;7.52;76.87;101012.91;5005898;28;20389;-76
2023/04/28 03:08:37;;;;;;;11.52;7.05;;;;;;;7.51;76.70;101016.38;5015757;28;20063;-76
2023/04/28 03:11:02;;;;;;;14.07;7.20;;;;;;;7.49;77.89;101013.78;5017548;28;20029;-76
2023/04/28 03:13:28;;;;;;;11.48;7.28;;;;;;;7.52;78.02;101023.25;5011807;28;20073;-76
2023/04/28 03:15:54;;;;;;;12.85;7.05;;;;;;;7.53;77.79;101022.38;5016240;28;20481;-76
2023/04/28 03:18:19;;;;;;;11.05;6.60;;;;;;;7.55;77.59;101018.91;5021097;28;20088;-76
2023/04/28 03:20:44;;;;;;;12.82;7.20;;;;;;;7.57;78.22;101016.31;5011842;28;20499;-76
2023/04/28 03:23:10;;;;;;;12.95;7.80;;;;;;;7.58;78.21;101013.72;5015467;28;20034;-76
2023/04/28 03:25:35;;;;;;;12.55;7.63;;;;;;;7.60;78.19;101016.28;5010313;28;20539;-76
2023/04/28 03:28:00;;;;;;;14.57;7.70;;;;;;;7.61;78.12;101015.41;5012799;28;20104;-76
2023/04/28 03:30:26;;;;;;;11.82;7.57;;;;;;;7.65;78.70;101013.63;5016102;28;20096;-76
2023/04/28 03:32:51;;;;;;;13.43;7.85;;;;;;;7.65;78.38;101014.50;5013786;28;20540;-76
2023/04/28 03:35:17;;;;;;;12.40;7.88;;;;;;;7.68;78.70;101008.44;5015768;28;20033;-76
2023/04/28 03:37:42;;;;;;;14.07;7.45;;;;;;;7.67;78.92;101012.75;5012607;28;20026;-76
2023/04/28 03:40:08;;;;;;;13.32;8.00;;;;;;;7.70;79.50;101017.88;5017272;28;20022;-76
2023/04/28 03:42:33;;;;;;;13.90;8.13;;;;;;;7.71;79.32;101009.25;5014501;28;20032;-76
2023/04/28 03:44:58;;;;;;;14.48;8.30;;;;;;;7.73;79.06;101004.91;5014887;28;20030;-76
2023/04/28 03:47:24;;;;;;;14.80;7.93;;;;;;;7.74;79.68;101006.63;5013513;28;20026;-76
2023/04/28 03:49:49;;;;;;;13.70;7.68;;;;;;;7.75;79.29;101003.16;5010310;28;20481;-77
2023/04/28 03:52:14;;;;;;;14.80;8.82;;;;;;;7.75;79.29;101000.56;5012255;28;20033;-76
2023/04/28 03:54:40;;;;;;;14.63;8.07;;;;;;;7.77;79.70;101003.13;5015449;28;20025;-76
2023/04/28 03:57:05;;;;;;;13.10;8.38;;;;;;;7.80;80.32;100995.31;5014554;28;20022;-76
2023/04/28 03:59:31;;;;;;;13.50;7.97;;;;;;;7.81;79.66;100994.44;5013067;28;20026;-76
2023/04/28 04:01:56;;;;;;;13.45;7.78;;;;;;;7.82;79.77;100996.16;5012113;28;20092;-76
2023/04/28 04:04:21;;;;;;;14.73;7.97;;;;;;;7.82;80.35;100993.56;5013876;28;20064;-76
2023/04/28 04:06:47;;;;;;;14.77;8.18;;;;;;;7.84;80.50;100988.41;5014673;28;20030;-76
2023/04/28 04:09:12;;;;;;;15.70;8.35;;;;;;;7.87;80.89;100990.94;5014553;28;20086;-76
2023/04/28 04:11:37;;;;;;;12.82;7.65;;;;;;;7.88;81.10;100992.66;5022101;28;20389;-76
2023/04/28 04:14:03;;;;;;;12.98;8.40;;;;;;;7.88;80.80;100995.22;5021880;28;20061;-76
2023/04/28 04:16:28;;;;;;;12.35;8.13;;;;;;;7.89;80.66;100984.88;5016298;28;20030;-76
2023/04/28 04:18:54;;;;;;;15.65;8.60;;;;;;;7.93;81.12;100988.28;5023382;28;20091;-76
2023/04/28 04:21:19;;;;;;;15.60;8.68;;;;;;;7.94;80.67;100984.81;5019336;28;20022;-76
2023/04/28 04:23:44;;;;;;;13.45;8.57;;;;;;;7.95;81.06;100983.06;5012512;28;20057;-76
2023/04/28 04:26:10;;;;;;;13.80;8.27;;;;;;;7.95;81.19;100978.75;5013219;28;20108;-77
2023/04/28 04:28:35;;;;;;;13.68;8.30;;;;;;;7.97;81.60;100973.53;5012036;28;20049;-76
2023/04/28 04:31:01;;;;;;;13.50;8.35;;;;;;;7.98;82.07;100975.25;5013896;28;20025;-76
2023/04/28 04:33:27;;;;;;;13.35;8.13;;;;;;;7.97;81.67;100971.81;5012768;28;20030;-77
2023/04/28 04:35:53;;;;;;;14.48;8.73;;;;;;;7.98;82.04;100978.72;5012947;28;20091;-76
2023/04/28 04:38:18;;;;;;;16.13;9.18;;;;;;;7.97;82.42;100978.72;5013738;28;20469;-76
2023/04/28 04:40:43;;;;;;;14.85;8.75;;;;;;;7.99;82.33;100983.03;5019957;28;20388;-77
2023/04/28 04:43:09;;;;;;;12.52;8.18;;;;;;;8.01;82.50;100975.22;5025582;28;20097;-76
2023/04/28 04:45:34;;;;;;;12.48;8.35;;;;;;;8.03;82.11;100976.06;5019201;28;20037;-76
2023/04/28 04:48:00;;;;;;;14.57;8.73;;;;;;;8.03;82.72;100979.50;5013860;28;20030;-76
2023/04/28 04:50:25;;;;;;;14.73;8.98;;;;;;;8.02;82.55;100983.00;5024056;28;20022;-76
2023/04/28 04:52:50;;;;;;;15.45;8.73;;;;;;;8.06;82.58;100976.03;5018907;28;20037;-76
2023/04/28 04:55:16;;;;;;;14.52;8.55;;;;;;;8.07;82.86;100964.78;5021925;28;20021;-76
2023/04/28 04:57:41;;;;;;;13.40;9.23;;;;;;;8.10;82.48;100953.50;5023539;28;20029;-76
2023/04/28 05:00:07;;;;;;;14.32;8.95;;;;;;;8.11;83.45;100960.41;5012689;28;20214;-76
2023/04/28 05:02:33;;;;;;;17.23;9.55;;;;;;;8.13;83.52;100953.47;5020671;28;20036;-76
2023/04/28 05:04:58;;;;;;;15.52;9.23;;;;;;;8.15;83.34;100959.50;5020360;28;20034;-76
2023/04/28 05:07:25;;;;;;;13.57;8.85;;;;;;;8.16;83.26;100956.03;5015548;28;20028;-77
2023/04/28 05:09:50;;;;;;;16.98;9.88;;;;;;;8.18;83.40;100952.53;5012545;28;20079;-76
2023/04/28 05:12:15;;;;;;;14.02;9.25;;;;;;;8.19;83.52;100954.25;5012182;28;20124;-76
2023/04/28 05:14:41;;;;;;;15.93;8.98;;;;;;;8.20;82.96;100960.28;5010359;28;20026;-77
2023/04/28 05:17:06;;;;;;;17.13;10.30;;;;;;;8.20;83.78;100957.69;5010581;28;20045;-76
2023/04/28 05:19:31;;;;;;;16.42;9.70;;;;;;;8.25;83.79;100947.28;5014310;28;20168;-76
2023/04/28 05:21:57;;;;;;;14.95;9.07;;;;;;;8.27;83.85;100956.72;5017954;28;20032;-76
2023/04/28 05:24:22;;;;;;;16.13;9.50;;;;;;;8.31;84.79;100953.22;5011394;28;20069;-76
2023/04/28 05:26:50;;;;;;;16.30;9.27;;;;;;;8.37;84.50;100951.44;5019480;28;20040;-76
2023/04/28 05:29:15;;;;;;;14.00;9.02;;;;;;;8.41;84.67;100938.38;5011836;28;20050;-76
2023/04/28 05:31:40;;;;;;;14.57;8.95;;;;;;;8.46;85.07;100925.34;5008619;28;20061;-76
2023/04/28 05:34:06;;;;;;;13.60;8.93;;;;;;;8.52;84.79;100916.63;5019018;28;20377;-77
2023/04/28 05:36:31;;;;;;;14.75;9.48;;;;;;;8.59;85.19;100919.09;5014484;28;20092;-76
2023/04/28 05:38:56;;;;;;;13.75;9.02;;;;;;;8.64;85.08;100919.03;5012367;28;20033;-77
2023/04/28 05:41:22;;;;;;;14.73;9.00;;;;;;;8.65;85.38;100911.25;5011152;28;20080;-76
2023/04/28 05:43:49;;;;;;;13.23;8.65;;;;;;;8.69;85.10;100921.56;5013313;28;20037;-76
2023/04/28 05:46:15;;;;;;;14.65;9.70;;;;;;;8.71;85.47;100920.66;5010264;28;20029;-76
2023/04/28 05:48:40;;;;;;;14.60;9.05;;;;;;;8.72;85.69;100927.56;5012563;28;21209;-76
2023/04/28 05:51:05;;;;;;;13.23;8.50;;;;;;;8.76;85.76;100939.59;5012671;28;20498;-76
2023/04/28 05:53:31;;;;;;;13.43;8.77;;;;;;;8.79;86.24;100934.38;5012446;28;20045;-77
2023/04/28 05:55:56;;;;;;;12.90;8.48;;;;;;;8.83;85.44;100929.97;5010000;28;20034;-76
2023/04/28 05:58:21;;;;;;;12.75;8.43;;;;;;;8.86;85.64;100918.69;5012712;28;20056;-76
2023/04/28 06:00:47;;;;;;;14.70;9.25;;;;;;;8.90;86.01;100920.34;5010489;28;20108;-76
2023/04/28 06:03:13;;;;;;;13.90;8.50;;;;;;;8.93;85.91;100931.50;5015000;28;20048;-76
2023/04/28 06:05:39;;;;;;;12.35;8.05;;;;;;;8.97;86.48;100927.13;5013128;28;20049;-76
2023/04/28 06:08:04;;;;;;;15.52;9.13;;;;;;;9.03;86.76;100931.38;5008909;28;20114;-76
2023/04/28 06:10:29;;;;;;;13.20;8.73;;;;;;;9.08;87.06;100927.81;5017674;28;20029;-76
2023/04/28 06:12:55;;;;;;;12.43;8.55;;;;;;;9.15;86.97;100936.31;5007194;28;20072;-76
2023/04/28 06:15:20;;;;;;;13.25;8.57;;;;;;;9.21;87.05;100931.03;5005637;28;20061;-76
2023/04/28 06:17:46;;;;;;;12.90;8.05;;;;;;;9.27;86.55;100925.72;5005255;28;20037;-76
2023/04/28 06:20:12;;;;;;;13.27;8.82;;;;;;;9.32;87.12;100922.16;5004089;28;21710;-76
2023/04/28 06:22:38;;;;;;;14.30;8.35;;;;;;;9.38;87.16;100914.28;5002794;28;20049;-75
2023/04/28 06:25:04;;;;;;;13.57;8.10;;;;;;;9.44;87.01;100928.88;5001207;28;20034;-77
2023/04/28 06:27:31;;;;;;;11.98;8.38;;;;;;;9.47;87.31;100921.88;5001817;28;20030;-76
2023/04/28 06:29:56;;;;;;;12.70;7.97;;;;;;;9.49;86.95;100927.91;5003661;28;20025;-76
2023/04/28 06:32:22;;;;;;;13.88;8.35;;;;;;;9.49;86.85;100927.91;5003284;28;20412;-76
2023/04/28 06:34:47;;;;;;;14.70;8.52;;;;;;;9.54;87.28;100923.47;5002427;28;20111;-76
2023/04/28 06:37:12;;;;;;;11.40;8.60;;;;;;;9.62;87.32;100919.84;5001584;28;21516;-76
2023/04/28 06:39:38;;;;;;;13.20;8.43;;;;;;;9.71;87.85;100924.88;5003309;28;20045;-76
2023/04/28 06:42:03;;;;;;;12.23;8.20;;;;;;;9.78;87.49;100923.84;5001652;28;20029;-76
2023/04/28 06:44:28;;;;;;;12.63;8.00;;;;;;;9.82;87.38;100917.69;4999946;28;20160;-76
2023/04/28 06:46:53;;;;;;;12.82;8.30;;;;;;;9.82;87.28;100919.44;4998287;28;20025;-76
2023/04/28 06:49:19;;;;;;;13.60;7.90;;;;;;;9.82;87.53;100917.69;5004566;28;20025;-75
2023/04/28 06:51:44;;;;;;;12.10;8.40;;;;;;;9.84;88.09;100921.13;5003506;28;20038;-76
2023/04/28 06:54:10;;;;;;;13.38;8.52;;;;;;;9.93;88.38;100922.66;5020813;28;20045;-76
2023/04/28 06:56:35;;;;;;;13.07;8.43;;;;;;;10.00;88.39;100920.78;5004973;28;20037;-76
2023/04/28 06:59:02;;;;;;;11.70;8.20;;;;;;;10.03;88.77;100915.53;5004443;28;20037;-76
2023/04/28 07:01:27;;;;;;;11.90;8.25;;;;;;;10.08;88.65;100916.25;5003786;28;20418;-76
2023/04/28 07:03:52;;;;;;;13.25;8.23;;;;;;;10.12;88.24;100915.31;5008087;28;20044;-76
2023/04/28 07:06:18;;;;;;;13.35;7.85;;;;;;;10.16;88.36;100910.91;5006081;28;20030;-76
2023/04/28 07:08:44;;;;;;;12.60;8.18;;;;;;;10.25;88.45;100912.41;5008379;28;20064;-76
2023/04/28 07:11:09;;;;;;;12.43;7.60;;;;;;;10.34;88.45;100909.59;5008383;28;20987;-76
2023/04/28 07:13:34;;;;;;;11.88;7.72;;;;;;;10.42;88.60;100910.28;5008156;28;20042;-76
2023/04/28 07:16:00;;;;;;;13.35;8.18;;;;;;;10.50;88.91;100906.66;5006807;28;20034;-75
2023/04/28 07:18:26;;;;;;;11.23;7.70;;;;;;;10.59;88.83;100903.84;5007529;28;20037;-76
2023/04/28 07:20:51;;;;;;;11.40;7.15;;;;;;;10.67;89.34;100901.06;5009054;28;20045;-78
2023/04/28 07:23:16;;;;;;;10.82;7.85;;;;;;;10.75;88.78;100905.19;5008521;28;20041;-77
2023/04/28 07:25:42;;;;;;;12.00;7.35;;;;;;;10.84;88.19;100900.63;5007744;28;20040;-76
2023/04/28 07:28:07;;;;;;;11.07;7.50;;;;;;;10.92;89.28;100896.91;5009180;28;20054;-76
2023/04/28 07:30:33;;;;;;;10.65;7.15;;;;;;;11.04;89.39;100905.28;5008670;28;20030;-76
2023/04/28 07:32:59;;;;;;;13.13;7.78;;;;;;;11.14;88.70;100898.09;5006582;28;20040;-76
2023/04/28 07:35:25;;;;;;;11.05;7.53;;;;;;;11.22;89.28;100899.59;5006128;28;20048;-76
2023/04/28 07:37:50;;;;;;;10.48;7.57;;;;;;;11.28;88.34;100895.94;5008847;28;20473;-76
2023/04/28 07:40:17;;;;;;;10.80;6.63;;;;;;;11.35;89.02;100886.25;5009101;28;20022;-76
2023/04/28 07:42:42;;;;;;;12.50;8.07;;;;;;;11.46;89.51;100891.13;5007995;28;20099;-77
2023/04/28 07:45:08;;;;;;;10.70;7.57;;;;;;;11.55;88.50;100901.28;5008026;28;20025;-76
2023/04/28 07:47:33;;;;;;;11.57;7.50;;;;;;;11.60;89.03;100907.25;5008933;28;20389;-77
2023/04/28 07:50:02;;;;;;;11.32;7.43;;;;;;;11.64;88.67;100903.63;5009287;28;20033;-76
2023/04/28 07:52:27;;;;;;;10.55;6.78;;;;;;;11.67;88.43;100900.94;5007638;28;20432;-76
2023/04/28 07:54:52;;;;;;;9.07;6.80;;;;;;;11.69;88.49;100904.34;5007436;28;20132;-77
2023/04/28 07:57:18;;;;;;;11.25;6.80;;;;;;;11.67;87.92;100905.31;5007261;28;20421;-76
2023/04/28 07:59:43;;;;;;;11.25;7.53;;;;;;;11.67;88.50;100897.47;5008612;28;20021;-76
2023/04/28 08:02:12;;;;;;;11.98;8.02;;;;;;;11.66;87.97;100904.44;5007423;28;20025;-76
2023/04/28 08:04:37;;;;;;;11.30;7.00;;;;;;;11.64;88.62;100908.81;5005285;28;20537;-76
2023/04/28 08:07:03;;;;;;;10.45;6.95;;;;;;;11.59;88.66;100913.34;5006364;28;20044;-77
2023/04/28 08:09:28;;;;;;;10.43;7.47;;;;;;;11.57;89.12;100909.06;5008419;28;20132;-76
2023/04/28 08:11:53;;;;;;;9.55;7.13;;;;;;;11.54;88.57;100912.59;5006323;28;20065;-76
2023/04/28 08:14:19;;;;;;;10.63;7.38;;;;;;;11.52;89.22;100911.78;5007996;28;20042;-76
2023/04/28 08:16:45;;;;;;;10.80;7.03;;;;;;;11.49;90.31;100912.75;5007220;28;20041;-76
2023/04/28 08:19:11;;;;;;;10.70;6.47;;;;;;;11.51;89.88;100912.69;5007235;28;20057;-76
2023/04/28 08:21:36;;;;;;;8.60;6.75;;;;;;;11.55;91.18;100906.50;5007132;28;20125;-76
2023/04/28 08:24:01;;;;;;;8.82;6.72;;;;;;;11.57;91.29;100917.75;5008103;28;20037;-76
2023/04/28 08:26:27;;;;;;;8.60;7.10;;;;;;;11.57;91.75;100907.31;5006253;28;20033;-76
2023/04/28 08:28:52;;;;;;;10.13;7.30;;;;;;;11.55;91.68;100906.50;5005245;28;20160;-76
2023/04/28 08:31:17;;;;;;;9.82;7.15;;;;;;;11.57;91.96;100909.06;5007262;28;20029;-76
2023/04/28 08:33:43;;;;;;;10.75;7.13;;;;;;;11.57;91.64;100909.94;5007053;28;20430;-76
2023/04/28 08:36:10;;;;;;;12.07;7.40;;;;;;;11.60;92.65;100909.84;5007881;28;20039;-77
2023/04/28 08:38:37;;;;;;;11.60;7.45;;;;;;;11.63;92.58;100914.94;5006825;28;20116;-76
2023/04/28 08:41:03;;;;;;;11.70;7.35;;;;;;;11.65;92.44;100923.56;5007905;28;20083;-76
2023/04/28 08:43:33;;;;;;;9.57;7.10;;;;;;;11.65;92.21;100915.75;5006481;28;20048;-76
2023/04/28 08:46:02;;;;;;;10.20;7.65;;;;;;;11.67;92.96;100913.97;5007949;28;20088;-76
2023/04/28 08:48:30;;;;;;;12.48;8.02;;;;;;;11.73;93.71;100910.31;5007687;28;20026;-76
2023/04/28 08:50:56;;;;;;;10.02;7.63;;;;;;;11.77;93.62;100913.69;5007545;28;20030;-76
2023/04/28 08:53:24;;;;;;;10.60;7.35;;;;;;;11.82;94.24;100909.19;5007819;28;20450;-76
2023/04/28 08:55:55;;;;;;;8.73;7.43;;;;;;;11.85;94.06;100909.09;5007696;28;20041;-77
2023/04/28 08:58:22;;;;;;;11.05;7.65;;;;;;;11.88;93.32;100910.75;5004590;28;20470;-77
2023/04/28 09:00:48;;;;;;;10.85;7.72;;;;;;;11.91;93.82;100905.44;5005075;28;20022;-76
2023/04/28 09:03:14;;;;;;;11.02;8.18;;;;;;;11.97;94.80;100911.31;5004696;28;20030;-76
2023/04/28 09:05:39;;;;;;;9.98;7.82;;;;;;;12.08;94.04;100907.59;4999362;28;20057;-76
2023/04/28 09:08:05;;;;;;;10.85;7.68;;;;;;;12.14;94.54;100916.06;4996041;28;20041;-76
2023/04/28 09:10:30;;;;;;;9.57;7.43;;;;;;;12.14;93.91;100920.41;5000400;28;20194;-76
2023/04/28 09:12:56;;;;;;;9.57;7.55;;;;;;;12.09;94.08;100917.97;5000908;28;20489;-76
2023/04/28 09:15:40;;;;;;;10.32;7.93;;;;;;;12.04;93.13;100919.00;5002713;28;20037;-76
2023/04/28 09:18:06;;;;;;;9.48;7.60;;;;;;;12.01;94.44;100913.88;5004429;28;20108;-76
2023/04/28 09:20:34;;;;;;;10.52;7.93;;;;;;;12.01;94.75;100904.31;5005958;28;20058;-77
2023/04/28 09:23:19;;;;;;;9.90;8.00;;;;;;;12.01;94.16;100914.75;5006025;28;20129;-76
2023/04/28 09:26:14;;;;;;;10.68;8.55;;;;;;;12.01;92.69;100919.09;5004733;28;20124;-76
2023/04/28 09:28:39;;;;;;;11.60;8.32;;;;;;;12.06;94.22;100906.78;5003489;28;20046;-76
2023/04/28 09:31:05;;;;;;;11.48;8.57;;;;;;;12.13;94.95;100908.28;5003471;28;20374;-77
2023/04/28 09:33:30;;;;;;;10.23;8.05;;;;;;;12.19;94.60;100902.88;5003564;28;20034;-76
2023/04/28 09:35:56;;;;;;;11.95;8.45;;;;;;;12.24;95.62;100902.72;4998041;28;20034;-76
2023/04/28 09:38:22;;;;;;;11.70;8.80;;;;;;;12.27;94.60;100916.53;5000806;28;20029;-76
2023/04/28 09:40:56;;;;;;;10.70;8.90;;;;;;;12.29;94.73;100913.88;5000113;28;20110;-75
2023/04/28 09:43:26;;;;;;;10.88;8.15;;;;;;;12.36;95.07;100909.31;5004156;28;20035;-76
2023/04/28 09:45:52;;;;;;;11.35;8.45;;;;;;;12.40;95.20;100911.78;5004455;28;20037;-75
2023/04/28 09:48:26;;;;;;;11.15;8.55;;;;;;;12.44;94.82;100907.31;5002968;28;20026;-76
2023/04/28 09:50:53;;;;;;;12.85;8.73;;;;;;;12.48;94.38;100906.28;5001975;28;20037;-76
2023/04/28 09:53:21;;;;;;;11.35;8.23;;;;;;;12.51;94.77;100906.19;5003787;28;20030;-76
2023/04/28 09:55:47;;;;;;;11.90;8.57;;;;;;;12.52;94.45;100894.88;5004158;28;20507;-76
2023/04/28 09:58:13;;;;;;;12.20;8.48;;;;;;;12.52;94.25;100910.53;5002262;28;20022;-76
2023/04/28 10:00:40;;;;;;;10.88;8.43;;;;;;;12.52;94.56;100915.75;5005083;28;20033;-76
2023/04/28 10:03:08;;;;;;;12.70;9.48;;;;;;;12.54;93.63;100913.94;5003683;28;20061;-76
2023/04/28 10:05:34;;;;;;;13.77;9.32;;;;;;;12.54;93.92;100913.09;5002272;28;20030;-75
2023/04/28 10:08:01;;;;;;;14.25;9.43;;;;;;;12.55;93.92;100914.81;4999513;28;20034;-76
2023/04/28 10:10:28;;;;;;;12.30;9.20;;;;;;;12.56;94.47;100908.66;5002967;28;20525;-77
2023/04/28 10:12:54;;;;;;;14.20;9.45;;;;;;;12.59;94.12;100912.03;5002456;28;20030;-77
2023/04/28 10:15:19;;;;;;;14.27;9.77;;;;;;;12.61;94.28;100909.38;5002313;28;20033;-76
2023/04/28 10:17:46;;;;;;;13.93;10.18;;;;;;;12.66;94.08;100906.59;5004536;28;20028;-77
2023/04/28 10:20:14;;;;;;;14.20;9.88;;;;;;;12.72;94.56;100912.47;5004347;28;20115;-76
2023/04/28 10:22:58;;;;;;;15.50;9.98;;;;;;;12.81;94.70;100910.47;5004086;28;21337;-76
2023/04/28 10:25:29;;;;;;;15.48;10.70;;;;;;;12.85;94.03;100907.69;5001872;28;20113;-76
2023/04/28 10:27:56;;;;;;;18.10;9.63;;;;;;;12.89;94.03;100906.69;5001799;28;21536;-76
2023/04/28 10:30:23;;;;;;;13.32;9.27;;;;;;;12.91;94.11;100917.06;5000115;28;20026;-76
2023/04/28 10:33:08;;;;;;;13.10;9.65;;;;;;;12.94;93.35;100911.72;5003467;28;20097;-76
2023/04/28 10:35:35;;;;;;;13.50;9.52;;;;;;;13.00;94.08;100913.28;5003185;28;20034;-76
2023/04/28 10:38:04;;;;;;;12.93;9.52;;;;;;;13.03;94.36;100910.56;5015856;28;20057;-76
2023/04/28 10:40:39;;;;;;;13.15;9.35;;;;;;;13.07;93.93;100912.16;5004461;28;20464;-76
2023/04/28 10:43:05;;;;;;;15.40;10.88;;;;;;;13.12;93.69;100914.59;5004415;28;20477;-77
2023/04/28 10:46:00;;;;;;;15.40;10.48;;;;;;;13.16;93.37;100909.22;5003234;28;20140;-77
2023/04/28 10:48:29;;;;;;;18.15;11.88;;;;;;;13.28;93.64;100904.47;5014993;28;20069;-76
2023/04/28 10:51:04;;;;;;;21.08;13.60;;;;;;;13.34;92.68;100909.47;5004625;28;20452;-76
2023/04/28 10:53:45;;;;;;;25.75;16.40;;;;;;;13.33;91.24;100902.53;5004088;28;20044;-75
2023/04/28 10:56:15;;;;;;;25.75;17.05;;;;;;;13.29;91.93;100907.03;5002598;28;20069;-75
2023/04/28 10:58:42;;;;;;;27.10;18.60;;;;;;;13.30;92.38;100902.66;5000247;28;20201;-75
2023/04/28 11:01:23;;;;;;;30.27;19.42;;;;;;;13.29;92.10;100906.19;4999533;28;20030;-77
2023/04/28 11:03:58;;;;;;;28.30;18.33;;;;;;;13.31;91.69;100907.00;5001741;28;20065;-77
2023/04/28 11:06:44;;;;;;;31.02;20.35;;;;;;;13.31;91.85;100893.94;5016886;28;20037;-75
2023/04/28 11:09:18;;;;;;;28.33;19.05;;;;;;;13.36;91.81;100897.19;5003567;28;20041;-76
2023/04/28 11:11:53;;;;;;;32.83;19.88;;;;;;;13.48;91.87;100894.19;5001683;28;20772;-75
2023/04/28 11:14:18;;;;;;;30.70;20.02;;;;;;;13.57;92.23;100895.59;5002439;28;20033;-76
2023/04/28 11:17:04;;;;;;;29.20;20.10;;;;;;;13.64;91.08;100891.84;5001747;28;20038;-76
2023/04/28 11:19:34;;;;;;;28.75;18.95;;;;;;;13.73;90.71;100895.88;5001434;28;20382;-76
2023/04/28 11:22:01;;;;;;;28.42;19.58;;;;;;;13.87;91.58;100886.63;4998384;28;20038;-76